N514DG KBJC-KCOS
Flight info
| Callsign | N514DG |
|---|---|
| Flight time | 0h 16m |
| Altitude | 11000 |
| Route | LUFSE V389 ADANE BRK |
| Aircraft | C25C/M-SDE2E3FGHRWXY/LB1 |
Departure
| Time | 2026-05-08 20:01 |
|---|---|
| Airport | Rocky Mountain Metropolitan Airport (KBJC) |
Arrival
| Time | 2026-05-08 20:18 |
|---|---|
| Airport | City of Colorado Springs Municipal Airport (KCOS) |
| Time | Latitude | Longitude | Altitude | Speed | Heading |
|---|---|---|---|---|---|
| 2026-05-08 19:44 | 39.90852 | -105.11164 | 5609 ft | 0 kts | 124° |
| 2026-05-08 19:52 | 39.90848 | -105.11155 | 5609 ft | 7 kts | 123° |
| 2026-05-08 19:52 | 39.90807 | -105.11086 | 5606 ft | 10 kts | 126° |
| 2026-05-08 19:52 | 39.90772 | -105.11033 | 5605 ft | 8 kts | 131° |
| 2026-05-08 19:52 | 39.90741 | -105.10993 | 5604 ft | 0 kts | 169° |
| 2026-05-08 19:53 | 39.90711 | -105.11011 | 5608 ft | 11 kts | 254° |
| 2026-05-08 19:54 | 39.90754 | -105.11113 | 5607 ft | 13 kts | 305° |
| 2026-05-08 19:54 | 39.90798 | -105.11194 | 5607 ft | 8 kts | 304° |
| 2026-05-08 19:54 | 39.90826 | -105.11248 | 5611 ft | 8 kts | 304° |
| 2026-05-08 19:54 | 39.90871 | -105.11334 | 5614 ft | 15 kts | 306° |
| 2026-05-08 19:55 | 39.90936 | -105.11456 | 5612 ft | 19 kts | 303° |
| 2026-05-08 19:55 | 39.91010 | -105.11598 | 5616 ft | 17 kts | 304° |
| 2026-05-08 19:55 | 39.91081 | -105.11733 | 5616 ft | 21 kts | 304° |
| 2026-05-08 19:55 | 39.91157 | -105.11880 | 5621 ft | 14 kts | 303° |
| 2026-05-08 19:56 | 39.91210 | -105.11984 | 5623 ft | 14 kts | 303° |
| 2026-05-08 19:56 | 39.91263 | -105.12084 | 5627 ft | 12 kts | 304° |
| 2026-05-08 19:56 | 39.91306 | -105.12166 | 5632 ft | 10 kts | 304° |
| 2026-05-08 19:56 | 39.91339 | -105.12229 | 5636 ft | 8 kts | 305° |
| 2026-05-08 19:57 | 39.91382 | -105.12313 | 5640 ft | 14 kts | 304° |
| 2026-05-08 19:57 | 39.91448 | -105.12436 | 5649 ft | 18 kts | 304° |
| 2026-05-08 19:57 | 39.91522 | -105.12577 | 5657 ft | 17 kts | 304° |
| 2026-05-08 19:57 | 39.91567 | -105.12662 | 5656 ft | 9 kts | 304° |
| 2026-05-08 19:58 | 39.91594 | -105.12712 | 5663 ft | 6 kts | 303° |
| 2026-05-08 19:58 | 39.91604 | -105.12755 | 5665 ft | 5 kts | 258° |
| 2026-05-08 19:58 | 39.91603 | -105.12758 | 5665 ft | 0 kts | 246° |
| 2026-05-08 20:00 | 39.91600 | -105.12766 | 5665 ft | 3 kts | 236° |
| 2026-05-08 20:00 | 39.91576 | -105.12790 | 5661 ft | 10 kts | 213° |
| 2026-05-08 20:00 | 39.91495 | -105.12770 | 5662 ft | 15 kts | 130° |
| 2026-05-08 20:00 | 39.91428 | -105.12643 | 5656 ft | 49 kts | 124° |
| 2026-05-08 20:01 | 39.91053 | -105.11912 | 5686 ft | 137 kts | 123° |
| 2026-05-08 20:01 | 39.90397 | -105.10659 | 6102 ft | 191 kts | 128° |
| 2026-05-08 20:01 | 39.89591 | -105.09557 | 7168 ft | 185 kts | 133° |
| 2026-05-08 20:01 | 39.88785 | -105.08492 | 7773 ft | 199 kts | 133° |
| 2026-05-08 20:02 | 39.87719 | -105.07059 | 8009 ft | 236 kts | 133° |
| 2026-05-08 20:02 | 39.86599 | -105.05540 | 8007 ft | 228 kts | 133° |
| 2026-05-08 20:02 | 39.85303 | -105.04447 | 8020 ft | 232 kts | 163° |
| 2026-05-08 20:02 | 39.83733 | -105.03977 | 9123 ft | 227 kts | 167° |
| 2026-05-08 20:03 | 39.82205 | -105.03511 | 10379 ft | 228 kts | 168° |
| 2026-05-08 20:03 | 39.80557 | -105.02990 | 10980 ft | 259 kts | 168° |
| 2026-05-08 20:03 | 39.78687 | -105.02392 | 10898 ft | 299 kts | 168° |
| 2026-05-08 20:03 | 39.76592 | -105.01716 | 10973 ft | 314 kts | 168° |
| 2026-05-08 20:04 | 39.74472 | -105.01028 | 10959 ft | 314 kts | 167° |
| 2026-05-08 20:04 | 39.72347 | -105.00337 | 10945 ft | 315 kts | 168° |
| 2026-05-08 20:04 | 39.70224 | -104.99646 | 10950 ft | 315 kts | 167° |
| 2026-05-08 20:04 | 39.68097 | -104.98961 | 10958 ft | 315 kts | 167° |
| 2026-05-08 20:05 | 39.65969 | -104.98269 | 10975 ft | 315 kts | 167° |
| 2026-05-08 20:05 | 39.63838 | -104.97579 | 10974 ft | 316 kts | 167° |
| 2026-05-08 20:05 | 39.61771 | -104.96637 | 10962 ft | 317 kts | 153° |
| 2026-05-08 20:05 | 39.59936 | -104.95051 | 10983 ft | 318 kts | 145° |
| 2026-05-08 20:06 | 39.58142 | -104.93367 | 10987 ft | 319 kts | 144° |
| 2026-05-08 20:06 | 39.56291 | -104.91768 | 10990 ft | 320 kts | 149° |
| 2026-05-08 20:06 | 39.54377 | -104.90287 | 10977 ft | 321 kts | 150° |
| 2026-05-08 20:06 | 39.52472 | -104.88781 | 10994 ft | 321 kts | 149° |
| 2026-05-08 20:07 | 39.50588 | -104.87237 | 10990 ft | 321 kts | 148° |
| 2026-05-08 20:07 | 39.48703 | -104.85692 | 10988 ft | 321 kts | 149° |
| 2026-05-08 20:07 | 39.46807 | -104.84160 | 10970 ft | 321 kts | 148° |
| 2026-05-08 20:07 | 39.44912 | -104.82636 | 10960 ft | 320 kts | 149° |
| 2026-05-08 20:08 | 39.43026 | -104.81109 | 10960 ft | 320 kts | 148° |
| 2026-05-08 20:08 | 39.41139 | -104.79587 | 10940 ft | 319 kts | 149° |
| 2026-05-08 20:08 | 39.39256 | -104.78063 | 10948 ft | 320 kts | 149° |
| 2026-05-08 20:08 | 39.37365 | -104.76536 | 10924 ft | 320 kts | 149° |
| 2026-05-08 20:09 | 39.35472 | -104.75014 | 10906 ft | 321 kts | 149° |
| 2026-05-08 20:09 | 39.33581 | -104.73488 | 10912 ft | 321 kts | 149° |
| 2026-05-08 20:09 | 39.31683 | -104.71962 | 10907 ft | 320 kts | 149° |
| 2026-05-08 20:09 | 39.29802 | -104.70446 | 10985 ft | 317 kts | 149° |
| 2026-05-08 20:10 | 39.27925 | -104.68932 | 10931 ft | 318 kts | 148° |
| 2026-05-08 20:10 | 39.26040 | -104.67418 | 10883 ft | 319 kts | 149° |
| 2026-05-08 20:10 | 39.24128 | -104.65957 | 10877 ft | 319 kts | 155° |
| 2026-05-08 20:10 | 39.21986 | -104.65296 | 10856 ft | 312 kts | 174° |
| 2026-05-08 20:11 | 39.19976 | -104.64996 | 10832 ft | 276 kts | 176° |
| 2026-05-08 20:11 | 39.18221 | -104.64774 | 10601 ft | 253 kts | 176° |
| 2026-05-08 20:11 | 39.16426 | -104.64580 | 9839 ft | 262 kts | 177° |
| 2026-05-08 20:11 | 39.14605 | -104.64403 | 9160 ft | 262 kts | 176° |
| 2026-05-08 20:12 | 39.12769 | -104.64247 | 8954 ft | 275 kts | 177° |
| 2026-05-08 20:12 | 39.10773 | -104.64089 | 8956 ft | 299 kts | 177° |
| 2026-05-08 20:12 | 39.08640 | -104.63931 | 8981 ft | 314 kts | 178° |
| 2026-05-08 20:12 | 39.06440 | -104.63766 | 9018 ft | 307 kts | 177° |
| 2026-05-08 20:13 | 39.04467 | -104.63616 | 9001 ft | 264 kts | 178° |
| 2026-05-08 20:13 | 39.02752 | -104.63758 | 9013 ft | 233 kts | 191° |
| 2026-05-08 20:13 | 39.01264 | -104.64295 | 9018 ft | 213 kts | 201° |
| 2026-05-08 20:13 | 38.99959 | -104.65029 | 9015 ft | 199 kts | 208° |
| 2026-05-08 20:14 | 38.98750 | -104.65805 | 9006 ft | 190 kts | 210° |
| 2026-05-08 20:14 | 38.97704 | -104.66767 | 9015 ft | 180 kts | 220° |
| 2026-05-08 20:14 | 38.96718 | -104.67760 | 9019 ft | 180 kts | 219° |
| 2026-05-08 20:14 | 38.95714 | -104.68762 | 9021 ft | 184 kts | 219° |
| 2026-05-08 20:15 | 38.94676 | -104.69762 | 9020 ft | 188 kts | 217° |
| 2026-05-08 20:15 | 38.93513 | -104.70522 | 8977 ft | 188 kts | 199° |
| 2026-05-08 20:15 | 38.92240 | -104.70961 | 8981 ft | 191 kts | 192° |
| 2026-05-08 20:15 | 38.90908 | -104.71276 | 8754 ft | 196 kts | 190° |
| 2026-05-08 20:16 | 38.89569 | -104.71461 | 8579 ft | 192 kts | 185° |
| 2026-05-08 20:16 | 38.88258 | -104.71552 | 8384 ft | 185 kts | 183° |
| 2026-05-08 20:16 | 38.86992 | -104.71609 | 8043 ft | 185 kts | 181° |
| 2026-05-08 20:16 | 38.85699 | -104.71595 | 7620 ft | 186 kts | 180° |
| 2026-05-08 20:17 | 38.84375 | -104.71593 | 6987 ft | 191 kts | 179° |
| 2026-05-08 20:17 | 38.83056 | -104.71575 | 6454 ft | 189 kts | 181° |
| 2026-05-08 20:17 | 38.81825 | -104.71581 | 6215 ft | 163 kts | 180° |
| 2026-05-08 20:17 | 38.80834 | -104.71583 | 6190 ft | 112 kts | 180° |
| 2026-05-08 20:18 | 38.80313 | -104.71589 | 6186 ft | 54 kts | 181° |
| 2026-05-08 20:18 | 38.80016 | -104.71567 | 6186 ft | 40 kts | 169° |
| 2026-05-08 20:18 | 38.79821 | -104.71453 | 6187 ft | 8 kts | 150° |
| 2026-05-08 20:18 | 38.79819 | -104.71452 | 6187 ft | 0 kts | 150° |
| 2026-05-08 20:19 | 38.79794 | -104.71417 | 6187 ft | 11 kts | 113° |
| 2026-05-08 20:19 | 38.79855 | -104.71351 | 6187 ft | 14 kts | 0° |
| 2026-05-08 20:20 | 38.79956 | -104.71349 | 6187 ft | 15 kts | 0° |
| 2026-05-08 20:20 | 38.80070 | -104.71348 | 6187 ft | 13 kts | 0° |
| 2026-05-08 20:20 | 38.80197 | -104.71349 | 6187 ft | 19 kts | 360° |
| 2026-05-08 20:20 | 38.80342 | -104.71358 | 6187 ft | 21 kts | 325° |
| 2026-05-08 20:21 | 38.80363 | -104.71458 | 6187 ft | 0 kts | 269° |
| 2026-05-08 20:21 | 38.80362 | -104.71500 | 6186 ft | 9 kts | 270° |
| 2026-05-08 20:21 | 38.80362 | -104.71618 | 6186 ft | 17 kts | 270° |
| 2026-05-08 20:22 | 38.80362 | -104.71766 | 6187 ft | 20 kts | 270° |
| 2026-05-08 20:22 | 38.80365 | -104.71895 | 6187 ft | 16 kts | 269° |
| 2026-05-08 20:22 | 38.80464 | -104.71957 | 6187 ft | 17 kts | 355° |
| 2026-05-08 20:22 | 38.80507 | -104.72049 | 6187 ft | 0 kts | 285° |